Terminal Aerodrome Forecast
Issued by NWS

Home | Current Version | Previous Version | Text Only | Print | Product List | Glossary On
Versions: 1 2 3 4 5 6 7 8 9 10 11 12 13 14 15 16 17 18 19 20 21 22 23 24
000
FTUS44 KOUN 222320
TAFPNC
TAF
KPNC 222320Z 2300/2324 15007KT P6SM SCT250
     FM231100 02011KT P6SM SCT040 BKN120
     FM231500 03014G22KT P6SM BKN040
      TEMPO 2315/2319 4SM -TSRA OVC030CB=

USA.gov is the U.S. government's official web portal to all federal, state and local government web resources and services.